createdAt,value
2023-08-27T00:01:23.795Z,1.95
2023-08-27T00:03:52.884Z,1.77
2023-08-27T00:06:20.124Z,1.55
2023-08-27T00:08:48.041Z,1.55
2023-08-27T00:11:15.701Z,1.60
2023-08-27T00:13:42.890Z,1.75
2023-08-27T00:16:10.565Z,1.95
2023-08-27T00:18:37.791Z,1.55
2023-08-27T00:21:06.284Z,1.60
2023-08-27T00:23:33.785Z,1.55
2023-08-27T00:26:01.031Z,2.03
2023-08-27T00:28:28.476Z,1.42
2023-08-27T00:31:06.999Z,2.00
2023-08-27T00:33:34.467Z,1.65
2023-08-27T00:36:02.191Z,1.73
2023-08-27T00:38:29.503Z,1.95
2023-08-27T00:40:56.975Z,1.95
2023-08-27T00:43:24.337Z,1.70
2023-08-27T00:45:54.524Z,2.10
2023-08-27T00:50:53.089Z,1.90
2023-08-27T00:53:22.465Z,1.70
2023-08-27T00:55:52.138Z,1.80
2023-08-27T00:58:19.480Z,1.90
2023-08-27T01:00:46.808Z,1.92
2023-08-27T01:03:14.261Z,1.80
2023-08-27T01:05:41.572Z,1.95
2023-08-27T01:08:27.528Z,1.88
2023-08-27T01:11:19.412Z,2.17
2023-08-27T01:13:52.289Z,1.80
2023-08-27T01:16:22.287Z,1.90
2023-08-27T01:18:53.281Z,1.97
2023-08-27T01:21:26.724Z,2.13
2023-08-27T01:23:54.173Z,2.28
2023-08-27T01:26:52.320Z,1.75
2023-08-27T01:29:23.162Z,2.15
2023-08-27T01:32:12.486Z,2.63
2023-08-27T01:34:40.222Z,2.22
2023-08-27T01:37:07.448Z,2.08
2023-08-27T01:39:34.742Z,1.90
2023-08-27T01:42:02.104Z,1.92
2023-08-27T01:44:29.327Z,2.08
2023-08-27T01:46:56.675Z,2.03
2023-08-27T01:49:26.902Z,2.53
2023-08-27T01:51:54.131Z,2.13
2023-08-27T01:54:24.586Z,2.10
2023-08-27T01:56:54.841Z,1.92
2023-08-27T01:59:23.143Z,2.13
2023-08-27T02:01:50.452Z,2.10
2023-08-27T02:04:22.429Z,1.83
2023-08-27T02:07:11.321Z,1.80
2023-08-27T02:09:41.440Z,1.90
2023-08-27T02:12:10.388Z,1.92
2023-08-27T02:14:40.299Z,2.05
2023-08-27T02:17:07.880Z,2.10
2023-08-27T02:19:35.063Z,2.38
2023-08-27T02:22:02.968Z,1.95
2023-08-27T02:24:31.001Z,1.70
2023-08-27T02:26:58.232Z,2.20
2023-08-27T02:29:25.477Z,2.10
2023-08-27T02:31:55.890Z,1.50
2023-08-27T02:34:23.285Z,1.80
2023-08-27T02:36:50.465Z,2.17
2023-08-27T02:39:18.301Z,2.28
2023-08-27T02:41:45.524Z,2.05
2023-08-27T02:44:12.927Z,2.03
2023-08-27T02:46:40.282Z,1.70
2023-08-27T02:49:07.576Z,2.17
2023-08-27T02:51:34.745Z,1.95
2023-08-27T02:54:02.564Z,1.92
2023-08-27T02:56:29.851Z,1.80
2023-08-27T02:58:58.902Z,2.03
2023-08-27T03:01:29.014Z,1.85
2023-08-27T03:03:56.480Z,1.80
2023-08-27T03:06:23.851Z,1.80
2023-08-27T03:08:54.758Z,2.28
2023-08-27T03:11:25.446Z,2.10
2023-08-27T03:13:55.244Z,1.83
2023-08-27T03:16:25.671Z,1.90
2023-08-27T03:18:54.448Z,1.88
2023-08-27T03:21:22.948Z,2.08
2023-08-27T03:23:50.517Z,1.77
2023-08-27T03:26:17.613Z,1.80
2023-08-27T03:28:45.538Z,1.90
2023-08-27T03:31:12.927Z,1.60
2023-08-27T03:33:40.523Z,1.73
2023-08-27T03:36:07.726Z,1.83
2023-08-27T03:38:34.945Z,1.60
2023-08-27T03:41:02.273Z,1.58
2023-08-27T03:43:29.390Z,2.05
2023-08-27T03:45:57.150Z,2.00
2023-08-27T03:48:25.108Z,2.00
2023-08-27T03:50:52.849Z,1.90
2023-08-27T03:53:20.057Z,1.83
2023-08-27T03:55:47.765Z,1.80
2023-08-27T03:58:14.940Z,2.00
2023-08-27T04:00:42.709Z,1.92
2023-08-27T04:03:10.066Z,1.63
2023-08-27T04:05:38.945Z,1.73
2023-08-27T04:08:07.831Z,1.75
2023-08-27T04:10:35.343Z,2.17
2023-08-27T04:13:02.843Z,1.95
2023-08-27T04:15:30.328Z,1.90
2023-08-27T04:17:57.814Z,1.65
2023-08-27T04:20:31.551Z,1.80
2023-08-27T04:22:59.173Z,1.63
2023-08-27T04:25:27.073Z,1.70
2023-08-27T04:27:57.840Z,1.48
2023-08-27T04:30:27.793Z,1.95
2023-08-27T04:32:58.431Z,1.95
2023-08-27T04:35:26.117Z,1.60
2023-08-27T04:37:53.420Z,1.92
2023-08-27T04:40:20.625Z,1.83
2023-08-27T04:42:48.321Z,1.80
2023-08-27T04:45:15.808Z,1.83
2023-08-27T04:47:46.017Z,1.80
2023-08-27T04:50:13.438Z,2.00
2023-08-27T04:52:40.714Z,2.03
2023-08-27T04:55:08.197Z,2.00
2023-08-27T04:57:36.207Z,1.90
2023-08-27T05:00:10.728Z,1.60
2023-08-27T05:02:38.633Z,2.42
2023-08-27T05:05:06.300Z,1.88
2023-08-27T05:07:36.380Z,1.85
2023-08-27T05:10:04.092Z,1.88
2023-08-27T05:12:31.348Z,1.60
2023-08-27T05:14:58.673Z,1.90
2023-08-27T05:17:27.017Z,2.03
2023-08-27T05:19:57.232Z,1.83
2023-08-27T05:22:24.937Z,1.73
2023-08-27T05:24:52.482Z,2.05
2023-08-27T05:27:19.708Z,1.80
2023-08-27T05:29:48.153Z,1.80
2023-08-27T05:32:16.006Z,1.90
2023-08-27T05:34:43.244Z,1.80
2023-08-27T05:37:10.490Z,1.83
2023-08-27T05:39:37.797Z,2.00
2023-08-27T05:42:05.419Z,1.85
2023-08-27T05:44:32.573Z,1.70
2023-08-27T05:46:59.980Z,1.90
2023-08-27T05:49:30.688Z,1.60
2023-08-27T05:51:57.991Z,2.17
2023-08-27T05:54:27.740Z,1.60
2023-08-27T05:56:59.620Z,1.80
2023-08-27T05:59:30.190Z,1.48
2023-08-27T06:02:01.479Z,1.60
2023-08-27T06:04:30.364Z,2.10
2023-08-27T06:06:57.962Z,1.92
2023-08-27T06:09:28.176Z,2.97
2023-08-27T06:11:55.443Z,1.83
2023-08-27T06:14:23.431Z,1.63
2023-08-27T06:16:50.890Z,1.77
2023-08-27T06:19:18.220Z,1.50
2023-08-27T06:21:45.688Z,1.63
2023-08-27T06:24:15.729Z,1.70
2023-08-27T06:26:43.048Z,1.50
2023-08-27T06:29:10.365Z,1.60
2023-08-27T06:31:40.643Z,1.58
2023-08-27T06:34:08.154Z,2.00
2023-08-27T06:36:35.542Z,1.70
2023-08-27T06:39:03.272Z,1.85
2023-08-27T06:41:31.379Z,1.60
2023-08-27T06:44:02.405Z,1.55
2023-08-27T06:46:40.742Z,1.80
2023-08-27T06:49:12.188Z,1.70
2023-08-27T06:51:39.584Z,1.40
2023-08-27T06:54:07.087Z,1.60
2023-08-27T06:56:36.919Z,1.50
2023-08-27T06:59:04.389Z,1.77
2023-08-27T07:01:32.222Z,1.73
2023-08-27T07:04:00.490Z,1.55
2023-08-27T07:06:28.095Z,1.50
2023-08-27T07:08:55.716Z,1.55
2023-08-27T07:11:22.911Z,1.90
2023-08-27T07:13:53.589Z,1.60
2023-08-27T07:16:21.137Z,1.60
2023-08-27T07:18:48.511Z,1.60
2023-08-27T07:21:15.960Z,1.45
2023-08-27T07:23:44.901Z,1.65
2023-08-27T07:26:12.824Z,1.83
2023-08-27T07:28:40.187Z,1.70
2023-08-27T07:31:07.570Z,1.63
2023-08-27T07:33:36.173Z,1.77
2023-08-27T07:36:04.330Z,1.65
2023-08-27T07:38:31.602Z,1.50
2023-08-27T07:41:00.517Z,1.50
2023-08-27T07:43:28.308Z,1.60
2023-08-27T07:45:55.508Z,1.60
2023-08-27T07:48:23.044Z,1.40
2023-08-27T07:50:51.222Z,1.95
2023-08-27T07:53:18.447Z,1.65
2023-08-27T07:55:45.826Z,1.85
2023-08-27T07:58:13.253Z,1.95
2023-08-27T08:00:40.660Z,1.48
2023-08-27T08:03:08.241Z,1.40
2023-08-27T08:05:35.818Z,1.40
2023-08-27T08:08:03.285Z,1.85
2023-08-27T08:10:30.635Z,1.50
2023-08-27T08:12:58.335Z,1.70
2023-08-27T08:15:26.170Z,1.50
2023-08-27T08:17:53.938Z,1.33
2023-08-27T08:20:21.406Z,1.00
2023-08-27T08:22:48.568Z,1.30
2023-08-27T08:25:15.725Z,1.35
2023-08-27T08:27:43.051Z,1.23
2023-08-27T08:30:10.710Z,1.40
2023-08-27T08:32:37.989Z,1.23
2023-08-27T08:35:06.237Z,1.27
2023-08-27T08:37:33.571Z,1.60
2023-08-27T08:42:58.282Z,1.40
2023-08-27T08:45:52.550Z,1.20
2023-08-27T08:48:23.444Z,1.30
2023-08-27T08:50:50.947Z,1.38
2023-08-27T08:53:34.488Z,1.30
2023-08-27T08:56:15.649Z,1.10
2023-08-27T08:58:50.587Z,1.30
2023-08-27T09:01:20.833Z,1.00
2023-08-27T09:04:04.187Z,1.23
2023-08-27T09:06:35.625Z,1.10
2023-08-27T09:16:43.290Z,1.30
2023-08-27T09:19:24.913Z,1.13
2023-08-27T09:38:12.790Z,1.30
2023-08-27T09:41:26.036Z,1.10
2023-08-27T09:43:55.580Z,1.15
2023-08-27T09:46:29.837Z,1.13
2023-08-27T09:49:00.722Z,1.08
2023-08-27T09:51:32.658Z,0.98
2023-08-27T09:54:41.426Z,1.30
2023-08-27T09:57:11.961Z,1.10
2023-08-27T10:02:36.870Z,1.08
2023-08-27T10:05:17.209Z,1.00
2023-08-27T10:08:08.098Z,1.20
2023-08-27T10:10:43.194Z,1.20
2023-08-27T10:13:19.070Z,1.20
2023-08-27T10:15:46.881Z,1.10
2023-08-27T10:18:23.593Z,1.00
2023-08-27T10:20:51.194Z,1.10
2023-08-27T10:23:21.675Z,1.00
2023-08-27T10:26:25.954Z,1.00
2023-08-27T10:29:22.265Z,1.00
2023-08-27T10:31:49.832Z,1.00
2023-08-27T10:34:25.112Z,1.25
2023-08-27T10:37:14.687Z,1.00
2023-08-27T10:39:45.410Z,1.00
2023-08-27T10:42:33.922Z,1.17
2023-08-27T10:45:39.017Z,0.90
2023-08-27T10:49:24.929Z,1.00
2023-08-27T10:52:02.504Z,0.90
2023-08-27T10:54:30.391Z,1.05
2023-08-27T10:57:14.465Z,0.85
2023-08-27T10:59:42.813Z,1.15
2023-08-27T11:02:10.593Z,1.48
2023-08-27T11:04:41.670Z,0.90
2023-08-27T11:07:28.813Z,0.80
2023-08-27T11:10:05.646Z,1.10
2023-08-27T11:12:45.565Z,0.90
2023-08-27T11:15:52.205Z,0.93
2023-08-27T11:18:53.374Z,0.70
2023-08-27T11:21:42.058Z,0.80
2023-08-27T11:24:15.322Z,1.00
2023-08-27T11:26:43.191Z,0.80
2023-08-27T11:29:17.179Z,0.80
2023-08-27T11:31:46.271Z,1.08
2023-08-27T11:34:17.501Z,0.97
2023-08-27T11:36:46.592Z,0.80
2023-08-27T11:39:14.462Z,0.80
2023-08-27T11:41:42.691Z,1.10
2023-08-27T11:44:11.683Z,0.75
2023-08-27T11:46:45.472Z,0.70
2023-08-27T11:49:14.877Z,0.80
2023-08-27T11:51:42.725Z,0.90
2023-08-27T11:54:11.796Z,0.80
2023-08-27T11:56:39.205Z,0.90
2023-08-27T11:59:06.773Z,0.88
2023-08-27T12:01:37.150Z,1.10
2023-08-27T12:04:11.693Z,0.80
2023-08-27T12:06:38.854Z,0.80
2023-08-27T12:09:14.960Z,0.70
2023-08-27T12:11:43.127Z,0.90
2023-08-27T12:14:10.299Z,0.75
2023-08-27T12:16:41.663Z,0.82
2023-08-27T12:19:09.969Z,1.00
2023-08-27T12:21:47.791Z,1.05
2023-08-27T12:24:33.352Z,0.95
2023-08-27T12:27:05.025Z,0.70
2023-08-27T12:29:37.114Z,1.10
2023-08-27T12:32:11.426Z,0.80
2023-08-27T12:34:43.559Z,1.17
2023-08-27T12:37:11.651Z,0.90
2023-08-27T12:39:42.909Z,0.80
2023-08-27T12:42:10.698Z,0.95
2023-08-27T12:44:38.202Z,1.10
2023-08-27T12:47:09.551Z,0.93
2023-08-27T12:49:37.250Z,0.65
2023-08-27T12:52:06.467Z,0.80
2023-08-27T12:54:34.901Z,0.85
2023-08-27T12:57:02.310Z,0.75
2023-08-27T12:59:29.741Z,1.00
2023-08-27T13:01:58.313Z,1.10
2023-08-27T13:04:36.490Z,1.17
2023-08-27T13:07:04.027Z,1.02
2023-08-27T13:09:31.314Z,0.75
2023-08-27T13:12:12.528Z,1.05
2023-08-27T13:14:39.948Z,1.10
2023-08-27T13:17:10.711Z,1.35
2023-08-27T13:19:38.194Z,0.90
2023-08-27T13:22:05.979Z,1.02
2023-08-27T13:24:33.215Z,0.88
2023-08-27T13:27:00.785Z,1.10
2023-08-27T13:29:31.623Z,1.10
2023-08-27T13:31:58.981Z,0.80
2023-08-27T13:34:29.228Z,1.00
2023-08-27T13:37:02.996Z,0.95
2023-08-27T13:39:30.508Z,0.90
2023-08-27T13:42:03.574Z,1.00
2023-08-27T13:44:30.967Z,0.90
2023-08-27T13:47:02.313Z,1.00
2023-08-27T13:49:32.339Z,0.90
2023-08-27T13:54:29.048Z,1.08
2023-08-27T13:56:56.668Z,0.80
2023-08-27T13:59:24.032Z,0.63
2023-08-27T14:02:13.536Z,0.70
2023-08-27T14:08:28.532Z,0.88
2023-08-27T14:11:01.024Z,0.80
2023-08-27T14:13:28.838Z,0.90
2023-08-27T14:15:57.865Z,1.05
2023-08-27T14:18:25.214Z,0.80
2023-08-27T14:20:52.463Z,0.60
2023-08-27T14:23:21.775Z,0.70
2023-08-27T14:25:49.157Z,0.60
2023-08-27T14:28:16.458Z,0.77
2023-08-27T14:30:43.934Z,0.70
2023-08-27T14:33:14.013Z,0.60
2023-08-27T14:35:43.558Z,0.70
2023-08-27T14:38:10.980Z,0.75
2023-08-27T14:40:38.815Z,0.60
2023-08-27T14:43:07.248Z,0.80
2023-08-27T14:45:35.492Z,0.60
2023-08-27T14:48:03.505Z,0.88
2023-08-27T14:50:31.582Z,0.60
2023-08-27T14:52:58.848Z,0.50
2023-08-27T14:55:27.539Z,0.50
2023-08-27T14:57:55.150Z,0.60
2023-08-27T15:00:22.723Z,0.60
2023-08-27T15:02:53.159Z,0.68
2023-08-27T15:05:20.448Z,0.60
2023-08-27T15:07:50.838Z,0.60
2023-08-27T15:10:19.752Z,0.65
2023-08-27T15:12:49.331Z,0.75
2023-08-27T15:15:16.967Z,0.52
2023-08-27T15:17:44.566Z,0.60
2023-08-27T15:20:12.258Z,0.50
2023-08-27T15:22:42.423Z,0.63
2023-08-27T15:27:43.294Z,0.70
2023-08-27T15:30:19.503Z,0.73
2023-08-27T15:32:47.413Z,0.60
2023-08-27T15:35:17.477Z,0.90
2023-08-27T15:37:46.029Z,0.60
2023-08-27T15:40:13.451Z,0.52
2023-08-27T15:42:40.722Z,0.70
2023-08-27T15:45:08.857Z,0.65
2023-08-27T15:47:47.002Z,0.90
2023-08-27T15:50:14.196Z,0.60
2023-08-27T15:52:48.715Z,0.60
2023-08-27T15:55:18.666Z,0.52
2023-08-27T15:57:46.608Z,0.70
2023-08-27T16:00:15.700Z,0.75
2023-08-27T16:03:01.045Z,0.70
2023-08-27T16:05:32.136Z,0.70
2023-08-27T16:07:59.932Z,0.60
2023-08-27T16:10:28.591Z,0.80
2023-08-27T16:13:05.720Z,0.70
2023-08-27T16:15:36.062Z,0.65
2023-08-27T16:18:03.643Z,0.65
2023-08-27T16:20:31.291Z,0.75
2023-08-27T16:22:59.508Z,0.50
2023-08-27T16:25:35.235Z,0.68
2023-08-27T16:28:02.975Z,0.80
2023-08-27T16:30:30.589Z,0.70
2023-08-27T16:33:04.305Z,0.70
2023-08-27T16:35:34.814Z,0.60
2023-08-27T16:38:04.977Z,0.47
2023-08-27T16:40:45.475Z,0.60
2023-08-27T16:43:14.274Z,0.70
2023-08-27T16:45:42.114Z,0.70
2023-08-27T16:48:16.869Z,0.70
2023-08-27T16:50:44.354Z,0.95
2023-08-27T16:53:16.206Z,0.60
2023-08-27T16:55:46.008Z,0.80
2023-08-27T16:58:18.821Z,0.63
2023-08-27T17:00:48.942Z,0.70
2023-08-27T17:03:30.170Z,0.70
2023-08-27T17:06:00.724Z,0.90
2023-08-27T17:08:40.705Z,0.75
2023-08-27T17:11:08.492Z,0.77
2023-08-27T17:13:37.139Z,0.75
2023-08-27T17:16:34.585Z,0.73
2023-08-27T17:19:18.198Z,0.80
2023-08-27T17:21:46.132Z,0.65
2023-08-27T17:24:49.469Z,0.60
2023-08-27T17:27:19.497Z,0.90
2023-08-27T17:29:50.068Z,0.82
2023-08-27T17:32:21.993Z,0.70
2023-08-27T17:34:51.209Z,0.70
2023-08-27T17:37:26.038Z,0.77
2023-08-27T17:40:10.214Z,0.82
2023-08-27T17:42:44.791Z,0.80
2023-08-27T17:45:16.475Z,0.70
2023-08-27T17:47:53.148Z,0.70
2023-08-27T17:50:31.846Z,0.90
2023-08-27T17:53:04.891Z,0.70
2023-08-27T17:55:32.341Z,0.80
2023-08-27T17:58:09.451Z,0.80
2023-08-27T18:00:39.748Z,0.90
2023-08-27T18:03:16.101Z,1.13
2023-08-27T18:05:43.898Z,1.00
2023-08-27T18:08:13.755Z,1.13
2023-08-27T18:10:46.814Z,0.70
2023-08-27T18:13:14.372Z,0.95
2023-08-27T18:15:49.546Z,0.90
2023-08-27T18:18:22.363Z,0.80
2023-08-27T18:21:09.182Z,0.70
2023-08-27T18:23:37.059Z,0.70
2023-08-27T18:26:28.219Z,0.70
2023-08-27T18:32:50.258Z,0.70
2023-08-27T18:35:43.853Z,0.80
2023-08-27T18:38:32.165Z,0.70
2023-08-27T18:41:45.088Z,0.88
2023-08-27T18:48:13.449Z,0.80
2023-08-27T18:51:15.639Z,0.90
2023-08-27T18:55:32.824Z,0.95
2023-08-27T18:58:49.408Z,0.88
2023-08-27T19:05:14.183Z,0.80
2023-08-27T19:17:07.748Z,1.35
2023-08-27T19:41:08.460Z,1.00
2023-08-27T20:05:42.978Z,1.13
2023-08-27T20:43:21.239Z,1.25
2023-08-27T20:46:17.670Z,1.10
2023-08-27T20:48:55.830Z,1.05
2023-08-27T20:53:02.880Z,1.10
2023-08-27T21:08:14.255Z,1.20
2023-08-27T21:11:46.724Z,1.00
2023-08-27T21:15:08.662Z,0.93
2023-08-27T21:22:28.330Z,0.98
2023-08-27T21:26:20.694Z,1.13
2023-08-27T21:29:25.002Z,1.10
2023-08-27T21:32:01.272Z,1.00
2023-08-27T21:34:51.462Z,1.27
2023-08-27T21:44:14.236Z,1.13
2023-08-27T21:47:05.233Z,1.00
2023-08-27T21:50:06.416Z,1.10
2023-08-27T21:57:33.784Z,1.00
2023-08-27T22:14:31.379Z,1.30
2023-08-27T22:22:55.488Z,1.10
2023-08-27T22:30:29.205Z,1.35
2023-08-27T22:34:12.345Z,1.40
2023-08-27T23:12:31.847Z,1.17
